sensor_id;sensor_type;location;lat;lon;timestamp;P1;durP1;ratioP1;P2;durP2;ratioP2
5559;SDS011;2803;47.916;8.074;2022-09-17T00:00:59;6.37;;;1.33;;
5559;SDS011;2803;47.916;8.074;2022-09-17T00:03:26;2.33;;;1.47;;
5559;SDS011;2803;47.916;8.074;2022-09-17T00:05:57;1.27;;;0.90;;
5559;SDS011;2803;47.916;8.074;2022-09-17T00:08:24;3.03;;;1.53;;
5559;SDS011;2803;47.916;8.074;2022-09-17T00:10:51;2.20;;;1.30;;
5559;SDS011;2803;47.916;8.074;2022-09-17T00:13:17;4.73;;;1.40;;
5559;SDS011;2803;47.916;8.074;2022-09-17T00:15:44;3.33;;;1.30;;
5559;SDS011;2803;47.916;8.074;2022-09-17T00:18:13;5.27;;;1.20;;
5559;SDS011;2803;47.916;8.074;2022-09-17T00:20:41;5.23;;;1.10;;
5559;SDS011;2803;47.916;8.074;2022-09-17T00:23:09;3.50;;;1.30;;
5559;SDS011;2803;47.916;8.074;2022-09-17T00:25:36;7.60;;;1.10;;
5559;SDS011;2803;47.916;8.074;2022-09-17T00:28:04;3.47;;;1.17;;
5559;SDS011;2803;47.916;8.074;2022-09-17T00:30:30;3.27;;;1.13;;
5559;SDS011;2803;47.916;8.074;2022-09-17T00:32:57;3.73;;;1.10;;
5559;SDS011;2803;47.916;8.074;2022-09-17T00:35:25;2.43;;;1.00;;
5559;SDS011;2803;47.916;8.074;2022-09-17T00:37:52;3.43;;;1.37;;
5559;SDS011;2803;47.916;8.074;2022-09-17T00:40:19;5.80;;;1.30;;
5559;SDS011;2803;47.916;8.074;2022-09-17T00:42:46;2.90;;;1.07;;
5559;SDS011;2803;47.916;8.074;2022-09-17T00:45:13;1.30;;;1.07;;
5559;SDS011;2803;47.916;8.074;2022-09-17T00:47:40;1.60;;;1.40;;
5559;SDS011;2803;47.916;8.074;2022-09-17T00:50:19;2.23;;;1.03;;
5559;SDS011;2803;47.916;8.074;2022-09-17T00:52:52;2.87;;;1.07;;
5559;SDS011;2803;47.916;8.074;2022-09-17T00:55:23;1.67;;;1.20;;
5559;SDS011;2803;47.916;8.074;2022-09-17T00:57:53;2.50;;;1.10;;
5559;SDS011;2803;47.916;8.074;2022-09-17T01:00:22;6.73;;;0.97;;
5559;SDS011;2803;47.916;8.074;2022-09-17T01:02:49;1.40;;;1.10;;
5559;SDS011;2803;47.916;8.074;2022-09-17T01:05:18;1.30;;;1.03;;
5559;SDS011;2803;47.916;8.074;2022-09-17T01:07:56;4.03;;;1.30;;
5559;SDS011;2803;47.916;8.074;2022-09-17T01:10:31;3.70;;;1.50;;
5559;SDS011;2803;47.916;8.074;2022-09-17T01:13:15;1.57;;;1.20;;
5559;SDS011;2803;47.916;8.074;2022-09-17T01:15:50;2.50;;;1.30;;
5559;SDS011;2803;47.916;8.074;2022-09-17T01:18:29;2.90;;;1.00;;
5559;SDS011;2803;47.916;8.074;2022-09-17T01:21:15;7.03;;;1.57;;
5559;SDS011;2803;47.916;8.074;2022-09-17T01:24:08;2.30;;;1.57;;
5559;SDS011;2803;47.916;8.074;2022-09-17T01:27:03;1.30;;;1.20;;
5559;SDS011;2803;47.916;8.074;2022-09-17T01:29:54;1.70;;;1.20;;
5559;SDS011;2803;47.916;8.074;2022-09-17T01:32:40;2.60;;;1.10;;
5559;SDS011;2803;47.916;8.074;2022-09-17T01:35:13;4.87;;;1.60;;
5559;SDS011;2803;47.916;8.074;2022-09-17T01:37:45;4.93;;;1.50;;
5559;SDS011;2803;47.916;8.074;2022-09-17T01:40:23;3.63;;;1.23;;
5559;SDS011;2803;47.916;8.074;2022-09-17T01:42:54;4.03;;;1.20;;
5559;SDS011;2803;47.916;8.074;2022-09-17T01:45:25;4.40;;;1.30;;
5559;SDS011;2803;47.916;8.074;2022-09-17T01:47:58;3.43;;;1.00;;
5559;SDS011;2803;47.916;8.074;2022-09-17T01:50:35;1.63;;;1.13;;
5559;SDS011;2803;47.916;8.074;2022-09-17T01:53:05;2.00;;;1.13;;
5559;SDS011;2803;47.916;8.074;2022-09-17T01:55:35;3.00;;;1.20;;
5559;SDS011;2803;47.916;8.074;2022-09-17T01:58:06;2.50;;;1.07;;
5559;SDS011;2803;47.916;8.074;2022-09-17T02:00:36;2.17;;;1.37;;
5559;SDS011;2803;47.916;8.074;2022-09-17T02:03:09;3.40;;;1.13;;
5559;SDS011;2803;47.916;8.074;2022-09-17T02:05:42;2.90;;;1.17;;
5559;SDS011;2803;47.916;8.074;2022-09-17T02:08:13;1.77;;;1.40;;
5559;SDS011;2803;47.916;8.074;2022-09-17T02:10:44;2.13;;;1.03;;
5559;SDS011;2803;47.916;8.074;2022-09-17T02:13:15;5.33;;;1.43;;
5559;SDS011;2803;47.916;8.074;2022-09-17T02:15:47;2.90;;;1.47;;
5559;SDS011;2803;47.916;8.074;2022-09-17T02:18:20;2.90;;;1.63;;
5559;SDS011;2803;47.916;8.074;2022-09-17T02:20:53;1.90;;;1.30;;
5559;SDS011;2803;47.916;8.074;2022-09-17T02:23:24;1.93;;;1.50;;
5559;SDS011;2803;47.916;8.074;2022-09-17T02:25:56;2.20;;;1.40;;
5559;SDS011;2803;47.916;8.074;2022-09-17T02:28:31;2.23;;;1.47;;
5559;SDS011;2803;47.916;8.074;2022-09-17T02:31:03;3.43;;;2.07;;
5559;SDS011;2803;47.916;8.074;2022-09-17T02:33:31;6.07;;;1.50;;
5559;SDS011;2803;47.916;8.074;2022-09-17T02:35:59;2.70;;;1.27;;
5559;SDS011;2803;47.916;8.074;2022-09-17T02:38:27;4.63;;;1.60;;
5559;SDS011;2803;47.916;8.074;2022-09-17T02:40:57;1.77;;;1.10;;
5559;SDS011;2803;47.916;8.074;2022-09-17T02:43:33;3.60;;;1.37;;
5559;SDS011;2803;47.916;8.074;2022-09-17T02:46:07;1.67;;;1.00;;
5559;SDS011;2803;47.916;8.074;2022-09-17T02:48:53;5.47;;;1.43;;
5559;SDS011;2803;47.916;8.074;2022-09-17T02:51:35;2.40;;;1.40;;
5559;SDS011;2803;47.916;8.074;2022-09-17T02:54:12;1.53;;;1.43;;
5559;SDS011;2803;47.916;8.074;2022-09-17T02:56:43;4.53;;;1.20;;
5559;SDS011;2803;47.916;8.074;2022-09-17T02:59:16;1.93;;;1.13;;
5559;SDS011;2803;47.916;8.074;2022-09-17T03:01:50;2.33;;;1.23;;
5559;SDS011;2803;47.916;8.074;2022-09-17T03:04:23;1.60;;;1.17;;
5559;SDS011;2803;47.916;8.074;2022-09-17T03:06:52;4.47;;;0.90;;
5559;SDS011;2803;47.916;8.074;2022-09-17T03:09:18;1.83;;;1.20;;
5559;SDS011;2803;47.916;8.074;2022-09-17T03:11:45;4.87;;;1.20;;
5559;SDS011;2803;47.916;8.074;2022-09-17T03:14:12;3.80;;;1.03;;
5559;SDS011;2803;47.916;8.074;2022-09-17T03:16:39;2.33;;;1.10;;
5559;SDS011;2803;47.916;8.074;2022-09-17T03:19:05;1.17;;;0.97;;
5559;SDS011;2803;47.916;8.074;2022-09-17T03:21:33;2.07;;;1.23;;
5559;SDS011;2803;47.916;8.074;2022-09-17T03:24:00;6.43;;;1.30;;
5559;SDS011;2803;47.916;8.074;2022-09-17T03:26:26;1.63;;;0.90;;
5559;SDS011;2803;47.916;8.074;2022-09-17T03:28:53;1.63;;;0.97;;
5559;SDS011;2803;47.916;8.074;2022-09-17T03:31:20;2.73;;;0.90;;
5559;SDS011;2803;47.916;8.074;2022-09-17T03:33:46;2.27;;;1.30;;
5559;SDS011;2803;47.916;8.074;2022-09-17T03:36:14;2.23;;;1.30;;
5559;SDS011;2803;47.916;8.074;2022-09-17T03:38:42;3.27;;;1.10;;
5559;SDS011;2803;47.916;8.074;2022-09-17T03:41:08;3.83;;;1.27;;
5559;SDS011;2803;47.916;8.074;2022-09-17T03:43:35;2.87;;;1.20;;
5559;SDS011;2803;47.916;8.074;2022-09-17T03:46:03;3.03;;;1.20;;
5559;SDS011;2803;47.916;8.074;2022-09-17T03:48:30;2.97;;;1.07;;
5559;SDS011;2803;47.916;8.074;2022-09-17T03:51:00;5.90;;;1.00;;
5559;SDS011;2803;47.916;8.074;2022-09-17T03:53:27;2.03;;;0.90;;
5559;SDS011;2803;47.916;8.074;2022-09-17T03:55:57;2.20;;;1.00;;
5559;SDS011;2803;47.916;8.074;2022-09-17T03:58:24;3.63;;;1.23;;
5559;SDS011;2803;47.916;8.074;2022-09-17T04:00:51;5.60;;;1.20;;
5559;SDS011;2803;47.916;8.074;2022-09-17T04:03:21;1.43;;;1.07;;
5559;SDS011;2803;47.916;8.074;2022-09-17T04:05:48;3.80;;;1.27;;
5559;SDS011;2803;47.916;8.074;2022-09-17T04:08:15;4.13;;;1.13;;
5559;SDS011;2803;47.916;8.074;2022-09-17T04:10:42;4.10;;;1.47;;
5559;SDS011;2803;47.916;8.074;2022-09-17T04:13:10;3.40;;;1.30;;
5559;SDS011;2803;47.916;8.074;2022-09-17T04:15:38;5.03;;;1.80;;
5559;SDS011;2803;47.916;8.074;2022-09-17T04:18:05;2.07;;;1.37;;
5559;SDS011;2803;47.916;8.074;2022-09-17T04:20:31;2.60;;;1.50;;
5559;SDS011;2803;47.916;8.074;2022-09-17T04:22:58;8.83;;;1.70;;
5559;SDS011;2803;47.916;8.074;2022-09-17T04:25:25;4.80;;;1.80;;
5559;SDS011;2803;47.916;8.074;2022-09-17T04:27:52;4.83;;;1.60;;
5559;SDS011;2803;47.916;8.074;2022-09-17T04:30:20;4.23;;;1.90;;
5559;SDS011;2803;47.916;8.074;2022-09-17T04:32:47;3.13;;;2.00;;
5559;SDS011;2803;47.916;8.074;2022-09-17T04:35:13;4.83;;;1.90;;
5559;SDS011;2803;47.916;8.074;2022-09-17T04:37:40;3.40;;;2.20;;
5559;SDS011;2803;47.916;8.074;2022-09-17T04:40:07;1.90;;;1.70;;
5559;SDS011;2803;47.916;8.074;2022-09-17T04:42:34;7.43;;;1.90;;
5559;SDS011;2803;47.916;8.074;2022-09-17T04:45:00;3.87;;;2.40;;
5559;SDS011;2803;47.916;8.074;2022-09-17T04:47:28;3.57;;;2.43;;
5559;SDS011;2803;47.916;8.074;2022-09-17T04:49:55;3.63;;;2.60;;
5559;SDS011;2803;47.916;8.074;2022-09-17T04:52:21;2.30;;;2.10;;
5559;SDS011;2803;47.916;8.074;2022-09-17T04:54:48;2.50;;;2.30;;
5559;SDS011;2803;47.916;8.074;2022-09-17T04:57:15;2.47;;;2.27;;
5559;SDS011;2803;47.916;8.074;2022-09-17T04:59:41;4.83;;;2.40;;
5559;SDS011;2803;47.916;8.074;2022-09-17T05:02:08;5.50;;;2.33;;
5559;SDS011;2803;47.916;8.074;2022-09-17T05:04:36;8.03;;;3.00;;
5559;SDS011;2803;47.916;8.074;2022-09-17T05:07:02;3.93;;;2.73;;
5559;SDS011;2803;47.916;8.074;2022-09-17T05:09:29;5.70;;;2.43;;
5559;SDS011;2803;47.916;8.074;2022-09-17T05:11:55;4.87;;;3.10;;
5559;SDS011;2803;47.916;8.074;2022-09-17T05:14:22;5.10;;;3.30;;
5559;SDS011;2803;47.916;8.074;2022-09-17T05:16:49;5.67;;;3.13;;
5559;SDS011;2803;47.916;8.074;2022-09-17T05:19:15;6.85;;;3.40;;
5559;SDS011;2803;47.916;8.074;2022-09-17T05:21:44;6.40;;;3.53;;
5559;SDS011;2803;47.916;8.074;2022-09-17T05:24:10;3.90;;;3.37;;
5559;SDS011;2803;47.916;8.074;2022-09-17T05:26:37;6.50;;;3.43;;
5559;SDS011;2803;47.916;8.074;2022-09-17T05:29:03;7.17;;;3.67;;
5559;SDS011;2803;47.916;8.074;2022-09-17T05:31:30;5.93;;;3.27;;
5559;SDS011;2803;47.916;8.074;2022-09-17T05:33:57;3.97;;;3.00;;
5559;SDS011;2803;47.916;8.074;2022-09-17T05:36:23;7.70;;;3.00;;
5559;SDS011;2803;47.916;8.074;2022-09-17T05:38:51;6.30;;;3.20;;
5559;SDS011;2803;47.916;8.074;2022-09-17T05:41:18;6.93;;;3.20;;
5559;SDS011;2803;47.916;8.074;2022-09-17T05:43:44;7.87;;;3.67;;
5559;SDS011;2803;47.916;8.074;2022-09-17T05:46:11;7.67;;;3.40;;
5559;SDS011;2803;47.916;8.074;2022-09-17T05:48:37;3.87;;;2.80;;
5559;SDS011;2803;47.916;8.074;2022-09-17T05:51:04;5.27;;;2.77;;
5559;SDS011;2803;47.916;8.074;2022-09-17T05:53:30;2.73;;;2.10;;
5559;SDS011;2803;47.916;8.074;2022-09-17T05:55:58;4.80;;;2.50;;
5559;SDS011;2803;47.916;8.074;2022-09-17T05:58:25;2.60;;;2.30;;
5559;SDS011;2803;47.916;8.074;2022-09-17T06:00:52;2.50;;;2.30;;
5559;SDS011;2803;47.916;8.074;2022-09-17T06:03:19;6.50;;;2.30;;
5559;SDS011;2803;47.916;8.074;2022-09-17T06:05:51;8.23;;;3.40;;
5559;SDS011;2803;47.916;8.074;2022-09-17T06:08:19;10.93;;;3.73;;
5559;SDS011;2803;47.916;8.074;2022-09-17T06:10:46;9.40;;;3.00;;
5559;SDS011;2803;47.916;8.074;2022-09-17T06:13:14;4.07;;;3.00;;
5559;SDS011;2803;47.916;8.074;2022-09-17T06:15:41;7.17;;;2.87;;
5559;SDS011;2803;47.916;8.074;2022-09-17T06:18:07;7.80;;;3.60;;
5559;SDS011;2803;47.916;8.074;2022-09-17T06:20:34;4.90;;;3.13;;
5559;SDS011;2803;47.916;8.074;2022-09-17T06:23:01;6.43;;;2.83;;
5559;SDS011;2803;47.916;8.074;2022-09-17T06:25:27;3.77;;;3.40;;
5559;SDS011;2803;47.916;8.074;2022-09-17T06:27:55;3.30;;;3.00;;
5559;SDS011;2803;47.916;8.074;2022-09-17T06:30:23;6.20;;;3.43;;
5559;SDS011;2803;47.916;8.074;2022-09-17T06:32:50;3.47;;;3.00;;
5559;SDS011;2803;47.916;8.074;2022-09-17T06:35:16;2.20;;;2.00;;
5559;SDS011;2803;47.916;8.074;2022-09-17T06:37:43;3.50;;;2.30;;
5559;SDS011;2803;47.916;8.074;2022-09-17T06:40:10;2.80;;;1.80;;
5559;SDS011;2803;47.916;8.074;2022-09-17T06:42:36;2.73;;;1.50;;
5559;SDS011;2803;47.916;8.074;2022-09-17T06:45:03;2.17;;;1.50;;
5559;SDS011;2803;47.916;8.074;2022-09-17T06:47:31;9.00;;;1.90;;
5559;SDS011;2803;47.916;8.074;2022-09-17T06:49:58;3.40;;;1.50;;
5559;SDS011;2803;47.916;8.074;2022-09-17T06:52:25;1.40;;;1.30;;
5559;SDS011;2803;47.916;8.074;2022-09-17T06:54:52;8.03;;;1.97;;
5559;SDS011;2803;47.916;8.074;2022-09-17T06:57:19;3.43;;;1.83;;
5559;SDS011;2803;47.916;8.074;2022-09-17T06:59:45;9.13;;;3.27;;
5559;SDS011;2803;47.916;8.074;2022-09-17T07:02:13;6.20;;;3.07;;
5559;SDS011;2803;47.916;8.074;2022-09-17T07:04:41;5.10;;;2.60;;
5559;SDS011;2803;47.916;8.074;2022-09-17T07:07:08;9.83;;;2.60;;
5559;SDS011;2803;47.916;8.074;2022-09-17T07:09:35;3.83;;;2.60;;
5559;SDS011;2803;47.916;8.074;2022-09-17T07:12:05;7.20;;;3.60;;
5559;SDS011;2803;47.916;8.074;2022-09-17T07:14:33;4.97;;;2.73;;
5559;SDS011;2803;47.916;8.074;2022-09-17T07:16:59;3.63;;;2.57;;
5559;SDS011;2803;47.916;8.074;2022-09-17T07:19:26;2.83;;;2.53;;
5559;SDS011;2803;47.916;8.074;2022-09-17T07:21:54;4.60;;;2.53;;
5559;SDS011;2803;47.916;8.074;2022-09-17T07:24:20;3.37;;;2.20;;
5559;SDS011;2803;47.916;8.074;2022-09-17T07:26:48;4.43;;;2.63;;
5559;SDS011;2803;47.916;8.074;2022-09-17T07:29:15;3.50;;;2.93;;
5559;SDS011;2803;47.916;8.074;2022-09-17T07:31:41;4.47;;;2.40;;
5559;SDS011;2803;47.916;8.074;2022-09-17T07:34:08;5.13;;;2.53;;
5559;SDS011;2803;47.916;8.074;2022-09-17T07:36:35;2.90;;;2.57;;
5559;SDS011;2803;47.916;8.074;2022-09-17T07:39:03;3.20;;;2.20;;
5559;SDS011;2803;47.916;8.074;2022-09-17T07:41:29;4.10;;;2.17;;
5559;SDS011;2803;47.916;8.074;2022-09-17T07:43:57;2.80;;;2.20;;
5559;SDS011;2803;47.916;8.074;2022-09-17T07:46:26;4.70;;;2.30;;
5559;SDS011;2803;47.916;8.074;2022-09-17T07:48:53;2.73;;;1.70;;
5559;SDS011;2803;47.916;8.074;2022-09-17T07:51:20;3.80;;;2.20;;
5559;SDS011;2803;47.916;8.074;2022-09-17T07:53:49;5.37;;;2.90;;
5559;SDS011;2803;47.916;8.074;2022-09-17T07:56:18;5.53;;;1.90;;
5559;SDS011;2803;47.916;8.074;2022-09-17T07:58:45;3.47;;;1.83;;
5559;SDS011;2803;47.916;8.074;2022-09-17T08:01:12;3.93;;;1.80;;
5559;SDS011;2803;47.916;8.074;2022-09-17T08:03:40;5.33;;;1.70;;
5559;SDS011;2803;47.916;8.074;2022-09-17T08:06:08;3.03;;;1.40;;
5559;SDS011;2803;47.916;8.074;2022-09-17T08:08:36;3.00;;;1.60;;
5559;SDS011;2803;47.916;8.074;2022-09-17T08:11:05;10.43;;;2.40;;
5559;SDS011;2803;47.916;8.074;2022-09-17T08:13:34;2.90;;;2.00;;
5559;SDS011;2803;47.916;8.074;2022-09-17T08:16:02;5.87;;;1.50;;
5559;SDS011;2803;47.916;8.074;2022-09-17T08:18:30;3.50;;;1.60;;
5559;SDS011;2803;47.916;8.074;2022-09-17T08:20:58;3.57;;;1.30;;
5559;SDS011;2803;47.916;8.074;2022-09-17T08:23:26;3.10;;;1.37;;
5559;SDS011;2803;47.916;8.074;2022-09-17T08:25:53;5.43;;;1.20;;
5559;SDS011;2803;47.916;8.074;2022-09-17T08:28:20;3.83;;;1.50;;
5559;SDS011;2803;47.916;8.074;2022-09-17T08:30:49;12.40;;;1.70;;
5559;SDS011;2803;47.916;8.074;2022-09-17T08:33:17;5.37;;;1.73;;
5559;SDS011;2803;47.916;8.074;2022-09-17T08:35:49;9.53;;;1.63;;
5559;SDS011;2803;47.916;8.074;2022-09-17T08:38:16;5.53;;;1.70;;
5559;SDS011;2803;47.916;8.074;2022-09-17T08:40:44;3.83;;;1.50;;
5559;SDS011;2803;47.916;8.074;2022-09-17T08:43:21;4.20;;;1.33;;
5559;SDS011;2803;47.916;8.074;2022-09-17T08:45:52;8.00;;;1.77;;
5559;SDS011;2803;47.916;8.074;2022-09-17T08:48:20;7.37;;;2.23;;
5559;SDS011;2803;47.916;8.074;2022-09-17T08:50:47;8.03;;;1.60;;
5559;SDS011;2803;47.916;8.074;2022-09-17T08:53:18;5.93;;;1.33;;
5559;SDS011;2803;47.916;8.074;2022-09-17T08:55:57;8.40;;;1.93;;
5559;SDS011;2803;47.916;8.074;2022-09-17T08:58:30;3.23;;;1.80;;
5559;SDS011;2803;47.916;8.074;2022-09-17T09:01:09;4.23;;;1.17;;
5559;SDS011;2803;47.916;8.074;2022-09-17T09:03:52;6.00;;;1.10;;
5559;SDS011;2803;47.916;8.074;2022-09-17T09:06:28;3.80;;;1.60;;
5559;SDS011;2803;47.916;8.074;2022-09-17T09:09:00;7.70;;;2.07;;
5559;SDS011;2803;47.916;8.074;2022-09-17T09:11:30;5.23;;;1.87;;
5559;SDS011;2803;47.916;8.074;2022-09-17T09:13:59;4.53;;;1.17;;
5559;SDS011;2803;47.916;8.074;2022-09-17T09:16:35;9.70;;;1.90;;
5559;SDS011;2803;47.916;8.074;2022-09-17T09:19:10;4.60;;;1.93;;
5559;SDS011;2803;47.916;8.074;2022-09-17T09:21:46;3.10;;;1.40;;
5559;SDS011;2803;47.916;8.074;2022-09-17T09:24:21;6.00;;;1.60;;
5559;SDS011;2803;47.916;8.074;2022-09-17T09:26:52;4.30;;;1.60;;
5559;SDS011;2803;47.916;8.074;2022-09-17T09:29:27;6.87;;;1.37;;
5559;SDS011;2803;47.916;8.074;2022-09-17T09:32:11;3.23;;;1.47;;
5559;SDS011;2803;47.916;8.074;2022-09-17T09:34:46;6.40;;;1.60;;
5559;SDS011;2803;47.916;8.074;2022-09-17T09:37:15;4.43;;;1.73;;
5559;SDS011;2803;47.916;8.074;2022-09-17T09:39:44;7.80;;;1.87;;
5559;SDS011;2803;47.916;8.074;2022-09-17T09:42:14;7.30;;;2.00;;
5559;SDS011;2803;47.916;8.074;2022-09-17T09:44:47;6.37;;;2.10;;
5559;SDS011;2803;47.916;8.074;2022-09-17T09:47:19;4.40;;;2.10;;
5559;SDS011;2803;47.916;8.074;2022-09-17T09:49:59;12.23;;;1.70;;
5559;SDS011;2803;47.916;8.074;2022-09-17T09:52:38;3.90;;;1.70;;
5559;SDS011;2803;47.916;8.074;2022-09-17T09:55:17;4.97;;;1.70;;
5559;SDS011;2803;47.916;8.074;2022-09-17T09:57:55;4.50;;;1.70;;
5559;SDS011;2803;47.916;8.074;2022-09-17T10:00:30;4.90;;;1.97;;
5559;SDS011;2803;47.916;8.074;2022-09-17T10:03:03;4.97;;;1.90;;
5559;SDS011;2803;47.916;8.074;2022-09-17T10:05:36;9.70;;;1.50;;
5559;SDS011;2803;47.916;8.074;2022-09-17T10:08:09;3.03;;;1.70;;
5559;SDS011;2803;47.916;8.074;2022-09-17T10:10:50;3.83;;;1.70;;
5559;SDS011;2803;47.916;8.074;2022-09-17T10:13:20;7.63;;;2.00;;
5559;SDS011;2803;47.916;8.074;2022-09-17T10:15:47;11.20;;;2.13;;
5559;SDS011;2803;47.916;8.074;2022-09-17T10:18:16;3.10;;;1.37;;
5559;SDS011;2803;47.916;8.074;2022-09-17T10:20:47;5.40;;;1.47;;
5559;SDS011;2803;47.916;8.074;2022-09-17T10:23:18;3.93;;;1.50;;
5559;SDS011;2803;47.916;8.074;2022-09-17T10:25:46;4.43;;;1.90;;
5559;SDS011;2803;47.916;8.074;2022-09-17T10:28:21;3.63;;;1.60;;
5559;SDS011;2803;47.916;8.074;2022-09-17T10:31:01;5.27;;;2.00;;
5559;SDS011;2803;47.916;8.074;2022-09-17T10:33:32;3.60;;;2.00;;
5559;SDS011;2803;47.916;8.074;2022-09-17T10:36:01;2.37;;;1.47;;
5559;SDS011;2803;47.916;8.074;2022-09-17T10:38:31;6.97;;;1.73;;
5559;SDS011;2803;47.916;8.074;2022-09-17T10:43:43;8.40;;;1.83;;
5559;SDS011;2803;47.916;8.074;2022-09-17T10:46:11;11.40;;;2.73;;
5559;SDS011;2803;47.916;8.074;2022-09-17T10:48:44;2.70;;;1.43;;
5559;SDS011;2803;47.916;8.074;2022-09-17T10:51:18;6.53;;;1.67;;
5559;SDS011;2803;47.916;8.074;2022-09-17T10:53:54;4.77;;;1.93;;
5559;SDS011;2803;47.916;8.074;2022-09-17T10:56:28;4.63;;;2.00;;
5559;SDS011;2803;47.916;8.074;2022-09-17T10:59:00;4.63;;;2.07;;
5559;SDS011;2803;47.916;8.074;2022-09-17T11:01:37;8.07;;;1.87;;
5559;SDS011;2803;47.916;8.074;2022-09-17T11:04:20;4.83;;;1.80;;
5559;SDS011;2803;47.916;8.074;2022-09-17T11:06:59;6.00;;;2.00;;
5559;SDS011;2803;47.916;8.074;2022-09-17T11:09:46;5.73;;;1.70;;
5559;SDS011;2803;47.916;8.074;2022-09-17T11:12:23;6.53;;;1.60;;
5559;SDS011;2803;47.916;8.074;2022-09-17T11:14:58;5.90;;;1.60;;
5559;SDS011;2803;47.916;8.074;2022-09-17T11:17:35;7.47;;;2.23;;
5559;SDS011;2803;47.916;8.074;2022-09-17T11:20:23;5.70;;;1.60;;
5559;SDS011;2803;47.916;8.074;2022-09-17T11:23:05;2.80;;;1.20;;
5559;SDS011;2803;47.916;8.074;2022-09-17T11:25:43;6.40;;;1.50;;
5559;SDS011;2803;47.916;8.074;2022-09-17T11:28:21;2.50;;;1.20;;
5559;SDS011;2803;47.916;8.074;2022-09-17T11:31:09;5.30;;;1.57;;
5559;SDS011;2803;47.916;8.074;2022-09-17T11:33:49;7.40;;;1.70;;
5559;SDS011;2803;47.916;8.074;2022-09-17T11:36:29;5.13;;;1.70;;
5559;SDS011;2803;47.916;8.074;2022-09-17T11:39:04;8.60;;;2.27;;
5559;SDS011;2803;47.916;8.074;2022-09-17T11:41:38;5.63;;;1.60;;
5559;SDS011;2803;47.916;8.074;2022-09-17T11:44:11;4.17;;;1.50;;
5559;SDS011;2803;47.916;8.074;2022-09-17T11:46:40;4.40;;;1.60;;
5559;SDS011;2803;47.916;8.074;2022-09-17T11:49:11;7.43;;;1.70;;
5559;SDS011;2803;47.916;8.074;2022-09-17T11:51:46;4.50;;;1.60;;
5559;SDS011;2803;47.916;8.074;2022-09-17T11:54:17;2.00;;;1.07;;
5559;SDS011;2803;47.916;8.074;2022-09-17T11:56:49;5.57;;;1.90;;
5559;SDS011;2803;47.916;8.074;2022-09-17T11:59:19;2.63;;;1.43;;
5559;SDS011;2803;47.916;8.074;2022-09-17T12:01:52;5.40;;;1.53;;
5559;SDS011;2803;47.916;8.074;2022-09-17T12:07:13;2.30;;;1.40;;
5559;SDS011;2803;47.916;8.074;2022-09-17T12:09:48;11.20;;;1.70;;
5559;SDS011;2803;47.916;8.074;2022-09-17T12:12:18;2.73;;;1.37;;
5559;SDS011;2803;47.916;8.074;2022-09-17T12:14:49;6.47;;;1.50;;
5559;SDS011;2803;47.916;8.074;2022-09-17T12:17:21;5.63;;;2.00;;
5559;SDS011;2803;47.916;8.074;2022-09-17T12:19:51;4.50;;;1.47;;
5559;SDS011;2803;47.916;8.074;2022-09-17T12:22:23;3.90;;;1.73;;
5559;SDS011;2803;47.916;8.074;2022-09-17T12:24:51;3.47;;;1.73;;
5559;SDS011;2803;47.916;8.074;2022-09-17T12:27:22;2.73;;;2.00;;
5559;SDS011;2803;47.916;8.074;2022-09-17T12:30:07;4.50;;;2.50;;
5559;SDS011;2803;47.916;8.074;2022-09-17T12:32:42;6.70;;;1.97;;
5559;SDS011;2803;47.916;8.074;2022-09-17T12:35:24;5.23;;;1.83;;
5559;SDS011;2803;47.916;8.074;2022-09-17T12:38:07;5.00;;;1.50;;
5559;SDS011;2803;47.916;8.074;2022-09-17T12:40:45;4.10;;;1.70;;
5559;SDS011;2803;47.916;8.074;2022-09-17T12:43:30;2.40;;;1.40;;
5559;SDS011;2803;47.916;8.074;2022-09-17T12:46:11;5.77;;;1.33;;
5559;SDS011;2803;47.916;8.074;2022-09-17T12:51:43;3.20;;;1.20;;
5559;SDS011;2803;47.916;8.074;2022-09-17T12:54:23;7.03;;;1.70;;
5559;SDS011;2803;47.916;8.074;2022-09-17T12:57:10;2.90;;;1.50;;
5559;SDS011;2803;47.916;8.074;2022-09-17T12:59:50;5.07;;;1.93;;
5559;SDS011;2803;47.916;8.074;2022-09-17T13:02:24;7.03;;;1.73;;
5559;SDS011;2803;47.916;8.074;2022-09-17T13:05:01;3.30;;;2.10;;
5559;SDS011;2803;47.916;8.074;2022-09-17T13:07:50;6.00;;;1.50;;
5559;SDS011;2803;47.916;8.074;2022-09-17T13:10:35;5.23;;;1.50;;
5559;SDS011;2803;47.916;8.074;2022-09-17T13:13:13;2.63;;;1.50;;
5559;SDS011;2803;47.916;8.074;2022-09-17T13:15:55;3.63;;;1.40;;
5559;SDS011;2803;47.916;8.074;2022-09-17T13:18:30;5.10;;;1.30;;
5559;SDS011;2803;47.916;8.074;2022-09-17T13:21:05;2.17;;;1.20;;
5559;SDS011;2803;47.916;8.074;2022-09-17T13:23:38;2.53;;;1.47;;
5559;SDS011;2803;47.916;8.074;2022-09-17T13:26:09;2.50;;;1.50;;
5559;SDS011;2803;47.916;8.074;2022-09-17T13:28:39;2.80;;;1.40;;
5559;SDS011;2803;47.916;8.074;2022-09-17T13:31:07;3.70;;;1.50;;
5559;SDS011;2803;47.916;8.074;2022-09-17T13:39:03;3.20;;;1.13;;
5559;SDS011;2803;47.916;8.074;2022-09-17T13:41:34;5.37;;;1.40;;
5559;SDS011;2803;47.916;8.074;2022-09-17T13:44:02;4.27;;;1.10;;
5559;SDS011;2803;47.916;8.074;2022-09-17T13:46:29;2.80;;;1.40;;
5559;SDS011;2803;47.916;8.074;2022-09-17T13:48:58;3.60;;;1.10;;
5559;SDS011;2803;47.916;8.074;2022-09-17T13:54:33;3.60;;;1.23;;
5559;SDS011;2803;47.916;8.074;2022-09-17T13:57:05;3.60;;;1.23;;
5559;SDS011;2803;47.916;8.074;2022-09-17T13:59:35;2.37;;;1.17;;
5559;SDS011;2803;47.916;8.074;2022-09-17T14:02:24;3.70;;;1.07;;
5559;SDS011;2803;47.916;8.074;2022-09-17T14:04:52;5.37;;;1.20;;
5559;SDS011;2803;47.916;8.074;2022-09-17T14:15:58;4.70;;;1.10;;
5559;SDS011;2803;47.916;8.074;2022-09-17T14:21:10;5.33;;;1.60;;
5559;SDS011;2803;47.916;8.074;2022-09-17T14:23:41;5.07;;;1.40;;
5559;SDS011;2803;47.916;8.074;2022-09-17T14:26:11;2.30;;;1.20;;
5559;SDS011;2803;47.916;8.074;2022-09-17T14:28:42;3.27;;;1.20;;
5559;SDS011;2803;47.916;8.074;2022-09-17T14:31:17;5.60;;;1.30;;
5559;SDS011;2803;47.916;8.074;2022-09-17T14:33:46;2.80;;;1.20;;
5559;SDS011;2803;47.916;8.074;2022-09-17T14:36:14;3.93;;;1.20;;
5559;SDS011;2803;47.916;8.074;2022-09-17T14:38:44;6.10;;;1.30;;
5559;SDS011;2803;47.916;8.074;2022-09-17T14:41:17;6.03;;;1.30;;
5559;SDS011;2803;47.916;8.074;2022-09-17T14:43:47;5.63;;;1.33;;
5559;SDS011;2803;47.916;8.074;2022-09-17T14:46:19;2.60;;;1.10;;
5559;SDS011;2803;47.916;8.074;2022-09-17T14:48:47;3.30;;;1.13;;
5559;SDS011;2803;47.916;8.074;2022-09-17T14:56:43;3.93;;;1.30;;
5559;SDS011;2803;47.916;8.074;2022-09-17T14:59:16;4.60;;;1.30;;
5559;SDS011;2803;47.916;8.074;2022-09-17T15:01:48;4.50;;;1.17;;
5559;SDS011;2803;47.916;8.074;2022-09-17T15:04:23;4.40;;;1.50;;
5559;SDS011;2803;47.916;8.074;2022-09-17T15:06:51;1.43;;;1.10;;
5559;SDS011;2803;47.916;8.074;2022-09-17T15:09:21;6.20;;;2.07;;
5559;SDS011;2803;47.916;8.074;2022-09-17T15:11:48;1.80;;;0.97;;
5559;SDS011;2803;47.916;8.074;2022-09-17T15:14:19;1.83;;;1.20;;
5559;SDS011;2803;47.916;8.074;2022-09-17T15:16:50;5.23;;;1.50;;
5559;SDS011;2803;47.916;8.074;2022-09-17T15:19:20;4.47;;;1.30;;
5559;SDS011;2803;47.916;8.074;2022-09-17T15:21:49;3.80;;;1.40;;
5559;SDS011;2803;47.916;8.074;2022-09-17T15:24:20;2.03;;;1.10;;
5559;SDS011;2803;47.916;8.074;2022-09-17T15:26:57;3.23;;;1.67;;
5559;SDS011;2803;47.916;8.074;2022-09-17T15:29:28;4.03;;;1.10;;
5559;SDS011;2803;47.916;8.074;2022-09-17T15:31:58;3.27;;;1.33;;
5559;SDS011;2803;47.916;8.074;2022-09-17T15:34:28;2.93;;;1.30;;
5559;SDS011;2803;47.916;8.074;2022-09-17T15:37:02;7.60;;;1.20;;
5559;SDS011;2803;47.916;8.074;2022-09-17T15:39:30;2.83;;;1.30;;
5559;SDS011;2803;47.916;8.074;2022-09-17T15:42:04;3.43;;;1.40;;
5559;SDS011;2803;47.916;8.074;2022-09-17T15:44:30;3.30;;;1.77;;
5559;SDS011;2803;47.916;8.074;2022-09-17T15:50:05;3.70;;;1.20;;
5559;SDS011;2803;47.916;8.074;2022-09-17T15:52:37;3.43;;;1.33;;
5559;SDS011;2803;47.916;8.074;2022-09-17T15:55:04;2.73;;;1.17;;
5559;SDS011;2803;47.916;8.074;2022-09-17T15:57:31;3.90;;;1.10;;
5559;SDS011;2803;47.916;8.074;2022-09-17T16:00:04;3.20;;;1.37;;
5559;SDS011;2803;47.916;8.074;2022-09-17T16:02:36;4.10;;;1.40;;
5559;SDS011;2803;47.916;8.074;2022-09-17T16:08:02;3.53;;;1.00;;
5559;SDS011;2803;47.916;8.074;2022-09-17T16:10:43;3.03;;;1.00;;
5559;SDS011;2803;47.916;8.074;2022-09-17T16:13:09;1.83;;;0.90;;
5559;SDS011;2803;47.916;8.074;2022-09-17T16:15:36;1.50;;;1.00;;
5559;SDS011;2803;47.916;8.074;2022-09-17T16:18:03;3.93;;;1.00;;